Home   Weather   Denmark   Aarhus   Past weeks
Flag for Denmark

Past Weather in Aarhus, Denmark — Yesterday and Last 2 Weeks

Currently: 64 °F. Mild. (Weather station: Tirstrup, Denmark). See more current weather

Past Weather in Aarhus — Graph

°F

Aarhus Temperature Yesterday

Maximum temperature yesterday: 82 °F (at 4:20 pm)
Minimum temperature yesterday: 54 °F (at 3:20 am)
Average temperature yesterday: 70 °F

High & Low Weather Summary for the Past Weeks

 TemperatureHumidityPressure
High82 °F (Jun 24, 4:20 pm)100% (Jun 21, 5:50 am)30.18 "Hg (Jun 21, 5:50 am)
Low50 °F (Jun 14, 2:50 am)42% (Jun 24, 4:20 pm)29.74 "Hg (Jun 24, 4:50 pm)
Average61 °F73%29.98 "Hg
* Reported Jun 10 6:20 am — Jun 25 6:20 am, Aarhus. Weather by CustomWeather, © 2022

Note: Actual official high and low records may vary slightly from our data, if they occured in-between our weather recording intervals... More about our weather records

Aarhus Weather History for the Previous 24 Hours

Scroll right to see more
 ConditionsComfort  
Time TempWeatherWind HumidityBarometerVisibility
6:20 am
Sat, Jun 25
63 °FMild.1 mph88%29.83 "HgN/A
5:50 am63 °FPassing clouds.3 mph88%29.83 "HgN/A
5:20 am61 °FPassing clouds.5 mph88%29.80 "HgN/A
4:50 am63 °FMild.2 mph88%29.80 "HgN/A
4:20 am64 °FMild.No wind83%29.80 "HgN/A
3:50 am66 °FPassing clouds.1 mph78%29.80 "HgN/A
3:20 am66 °FPassing clouds.3 mph78%29.77 "HgN/A
2:50 am66 °FPassing clouds.2 mph78%29.77 "HgN/A
1:20 am68 °FOvercast.6 mph73%29.77 "HgN/A
12:50 am68 °FPassing clouds.3 mph73%29.77 "HgN/A
12:20 am70 °FPassing clouds.6 mph69%29.77 "HgN/A
11:50 pm
Fri, Jun 24
70 °FPassing clouds.5 mph69%29.77 "HgN/A
11:20 pm70 °FPassing clouds.6 mph64%29.77 "HgN/A
10:50 pm72 °FPassing clouds.6 mph61%29.77 "HgN/A
10:20 pm72 °FPassing clouds.8 mph61%29.80 "HgN/A
9:50 pm72 °FMild.9 mph61%29.77 "HgN/A
9:20 pm73 °FPassing clouds.6 mph61%29.77 "HgN/A
8:50 pm75 °FPassing clouds.12 mph54%29.77 "HgN/A
8:20 pm75 °FMild.13 mph54%29.74 "HgN/A
7:50 pm77 °FWarm.15 mph51%29.74 "HgN/A
7:20 pm79 °FWarm.16 mph48%29.74 "HgN/A
6:50 pm79 °FWarm.17 mph48%29.77 "HgN/A
6:20 pm79 °FWarm.15 mph48%29.77 "HgN/A
5:50 pm81 °FWarm.17 mph42%29.77 "HgN/A
5:20 pm81 °FWarm.18 mph45%29.74 "HgN/A
4:50 pm81 °FWarm.17 mph45%29.74 "HgN/A
4:20 pm82 °FWarm.20 mph42%29.77 "HgN/A
3:50 pm81 °FWarm.16 mph48%29.77 "HgN/A
2:50 pm77 °FWarm.20 mph57%29.80 "HgN/A
2:20 pm77 °FWarm.17 mph54%29.80 "HgN/A
1:50 pm75 °FMild.18 mph57%29.80 "HgN/A
1:20 pm75 °FMild.15 mph54%29.83 "HgN/A
12:50 pm73 °FMild.16 mph53%29.83 "HgN/A
12:20 pm75 °FMild.16 mph50%29.83 "HgN/A
11:50 am73 °FMild.15 mph53%29.83 "HgN/A
11:20 am72 °FMild.14 mph57%29.86 "HgN/A
10:50 am72 °FMild.12 mph57%29.86 "HgN/A
10:20 am70 °FMild.10 mph64%29.86 "HgN/A
9:50 am70 °FMild.10 mph64%29.86 "HgN/A
8:50 am70 °FMild.10 mph60%29.89 "HgN/A
8:20 am68 °FMild.10 mph64%29.89 "HgN/A
7:50 am66 °FMild.10 mph68%29.89 "HgN/A
7:20 am66 °FMild.9 mph73%29.89 "HgN/A
Weather by CustomWeather, © 2022

See weather overview